Time;durP1;ratioP1;P1;durP2;ratioP2;P2;SDS_P1;SDS_P2;PMS_P1;PMS_P2;Temp;Humidity;BMP_temperature;BMP_pressure;BME280_temperature;BME280_humidity;BME280_pressure;Samples;Min_cycle;Max_cycle;Signal;HPM_P1;HPM_P2
2023/03/14 00:01:33;;;;;;;20.08;5.00;;;;;;;;;;5134075;27;20159;-64
2023/03/14 00:03:59;;;;;;;14.20;3.78;;;;;;;;;;5113796;27;20146;-64
2023/03/14 00:06:26;;;;;;;20.50;4.35;;;;;;;;;;5129393;27;20043;-64
2023/03/14 00:08:52;;;;;;;18.58;4.85;;;;;;;;;;5132678;27;20047;-65
2023/03/14 00:11:19;;;;;;;21.85;4.43;;;;;;;;;;5136319;27;20038;-64
2023/03/14 00:13:49;;;;;;;13.38;4.03;;;;;;;;;;5135055;27;20043;-64
2023/03/14 00:16:15;;;;;;;15.23;4.47;;;;;;;;;;5136320;27;20130;-64
2023/03/14 00:18:41;;;;;;;16.58;4.90;;;;;;;;;;5134459;27;20133;-64
2023/03/14 00:21:08;;;;;;;22.70;4.78;;;;;;;;;;5134448;27;20423;-65
2023/03/14 00:23:35;;;;;;;15.23;4.40;;;;;;;;;;5133297;27;20070;-64
2023/03/14 00:26:03;;;;;;;19.70;4.90;;;;;;;;;;5135160;27;20072;-64
2023/03/14 00:28:29;;;;;;;16.63;4.38;;;;;;;;;;5134489;27;20519;-64
2023/03/14 00:30:56;;;;;;;14.18;3.65;;;;;;;;;;5135831;27;20046;-64
2023/03/14 00:33:22;;;;;;;22.20;5.13;;;;;;;;;;5134997;27;20069;-64
2023/03/14 00:35:54;;;;;;;17.33;4.60;;;;;;;;;;5134233;27;20039;-64
2023/03/14 00:38:21;;;;;;;18.42;4.43;;;;;;;;;;5133934;27;20097;-64
2023/03/14 00:40:47;;;;;;;17.10;4.20;;;;;;;;;;5135386;27;20049;-64
2023/03/14 00:43:13;;;;;;;17.35;4.32;;;;;;;;;;5134676;27;20405;-64
2023/03/14 00:45:39;;;;;;;15.40;3.70;;;;;;;;;;5143522;27;20049;-64
2023/03/14 00:48:05;;;;;;;15.05;3.95;;;;;;;;;;5136308;27;20043;-64
2023/03/14 00:50:31;;;;;;;11.88;3.80;;;;;;;;;;5116103;27;20711;-64
2023/03/14 00:52:57;;;;;;;13.82;3.33;;;;;;;;;;5136109;27;20046;-64
2023/03/14 00:55:23;;;;;;;15.40;3.47;;;;;;;;;;5135510;27;20051;-64
2023/03/14 00:57:49;;;;;;;19.45;4.90;;;;;;;;;;5132899;27;20046;-64
2023/03/14 01:00:15;;;;;;;13.30;3.88;;;;;;;;;;5136258;27;20047;-65
2023/03/14 01:02:41;;;;;;;13.95;4.50;;;;;;;;;;5135887;27;20098;-66
2023/03/14 01:05:10;;;;;;;11.88;3.55;;;;;;;;;;5132814;27;20043;-64
2023/03/14 01:07:36;;;;;;;14.05;4.03;;;;;;;;;;5132463;27;20490;-65
2023/03/14 01:10:02;;;;;;;17.20;3.70;;;;;;;;;;5131881;27;20057;-64
2023/03/14 01:12:28;;;;;;;13.02;3.03;;;;;;;;;;5135086;27;20047;-65
2023/03/14 01:14:54;;;;;;;12.90;3.50;;;;;;;;;;5134305;27;20073;-65
2023/03/14 01:17:20;;;;;;;13.52;3.80;;;;;;;;;;5134949;27;20070;-65
2023/03/14 01:19:46;;;;;;;18.80;4.60;;;;;;;;;;5115849;27;20209;-64
2023/03/14 01:22:12;;;;;;;11.10;3.03;;;;;;;;;;5133864;27;20590;-65
2023/03/14 01:24:38;;;;;;;13.02;3.50;;;;;;;;;;5143520;27;20114;-65
2023/03/14 01:27:04;;;;;;;9.25;3.17;;;;;;;;;;5124733;27;20488;-64
2023/03/14 01:29:30;;;;;;;17.50;3.83;;;;;;;;;;5135099;27;20047;-64
2023/03/14 01:31:56;;;;;;;17.65;4.28;;;;;;;;;;5134382;27;20114;-65
2023/03/14 01:34:22;;;;;;;16.75;4.22;;;;;;;;;;5133916;27;20553;-65
2023/03/14 01:36:48;;;;;;;12.60;3.25;;;;;;;;;;5134162;27;20123;-65
2023/03/14 01:39:14;;;;;;;11.68;3.55;;;;;;;;;;5141266;27;20037;-65
2023/03/14 01:41:40;;;;;;;14.18;3.63;;;;;;;;;;5139150;27;20047;-64
2023/03/14 01:44:10;;;;;;;14.35;3.88;;;;;;;;;;5134989;27;20035;-65
2023/03/14 01:46:38;;;;;;;11.00;3.30;;;;;;;;;;5132215;27;20054;-64
2023/03/14 01:49:10;;;;;;;13.27;3.55;;;;;;;;;;5134025;27;20054;-64
2023/03/14 01:51:42;;;;;;;14.80;3.70;;;;;;;;;;5134905;27;20054;-64
2023/03/14 01:54:11;;;;;;;10.52;2.97;;;;;;;;;;5142907;27;20061;-64
2023/03/14 01:56:39;;;;;;;13.70;3.30;;;;;;;;;;5138931;27;20569;-65
2023/03/14 01:59:06;;;;;;;12.95;3.50;;;;;;;;;;5123974;27;20474;-64
2023/03/14 02:01:32;;;;;;;12.90;3.25;;;;;;;;;;5140314;27;20090;-65
2023/03/14 02:04:01;;;;;;;13.63;3.42;;;;;;;;;;5145281;27;20041;-64
2023/03/14 02:06:31;;;;;;;12.63;2.63;;;;;;;;;;5140115;27;20663;-65
2023/03/14 02:08:57;;;;;;;8.32;2.55;;;;;;;;;;5139517;27;20381;-64
2023/03/14 02:11:27;;;;;;;9.45;2.60;;;;;;;;;;5135915;27;20118;-64
2023/03/14 02:13:53;;;;;;;12.57;2.58;;;;;;;;;;5136168;27;20039;-64
2023/03/14 02:16:19;;;;;;;13.77;3.30;;;;;;;;;;5135100;27;20031;-64
2023/03/14 02:18:45;;;;;;;8.48;2.10;;;;;;;;;;5143250;27;20039;-64
2023/03/14 02:21:30;;;;;;;10.98;3.13;;;;;;;;;;5138415;27;20046;-64
2023/03/14 02:23:56;;;;;;;13.95;3.00;;;;;;;;;;5134584;27;20043;-64
2023/03/14 02:26:28;;;;;;;11.00;3.17;;;;;;;;;;5133670;27;20062;-64
2023/03/14 02:28:54;;;;;;;11.68;2.78;;;;;;;;;;5133842;27;20031;-64
2023/03/14 02:31:22;;;;;;;12.02;2.78;;;;;;;;;;5133872;27;20414;-63
2023/03/14 02:33:48;;;;;;;6.78;1.90;;;;;;;;;;5135309;27;20038;-63
2023/03/14 02:36:14;;;;;;;11.85;2.60;;;;;;;;;;5132483;27;20397;-63
2023/03/14 02:38:48;;;;;;;17.10;2.80;;;;;;;;;;5133055;27;20676;-63
2023/03/14 02:41:14;;;;;;;10.55;2.20;;;;;;;;;;5137958;27;20043;-63
2023/03/14 02:43:40;;;;;;;12.43;2.75;;;;;;;;;;5138677;27;20039;-63
2023/03/14 02:46:06;;;;;;;10.45;2.05;;;;;;;;;;5133924;27;20568;-63
2023/03/14 02:48:35;;;;;;;13.40;2.25;;;;;;;;;;5132499;27;20099;-63
2023/03/14 02:51:01;;;;;;;7.47;2.45;;;;;;;;;;5137805;27;20043;-63
2023/03/14 02:53:32;;;;;;;10.88;2.53;;;;;;;;;;5136488;27;20039;-63
2023/03/14 02:55:59;;;;;;;9.48;2.38;;;;;;;;;;5137171;27;20071;-63
2023/03/14 02:58:26;;;;;;;9.02;1.90;;;;;;;;;;5133858;27;20050;-63
2023/03/14 03:00:52;;;;;;;8.30;2.28;;;;;;;;;;5136713;27;20584;-63
2023/03/14 03:03:19;;;;;;;8.55;2.50;;;;;;;;;;5135774;27;20053;-63
2023/03/14 03:05:48;;;;;;;13.98;3.28;;;;;;;;;;5136706;27;20083;-63
2023/03/14 03:08:14;;;;;;;7.50;1.90;;;;;;;;;;5136234;27;20405;-64
2023/03/14 03:10:40;;;;;;;9.95;2.20;;;;;;;;;;5135816;27;20062;-63
2023/03/14 03:13:06;;;;;;;9.82;2.25;;;;;;;;;;5135901;27;20071;-63
2023/03/14 03:15:32;;;;;;;6.97;2.00;;;;;;;;;;5136681;27;20068;-63
2023/03/14 03:17:58;;;;;;;10.57;2.33;;;;;;;;;;5137107;27;20042;-63
2023/03/14 03:20:24;;;;;;;6.78;2.63;;;;;;;;;;5135256;27;20409;-62
2023/03/14 03:22:50;;;;;;;10.40;2.13;;;;;;;;;;5134425;27;20118;-63
2023/03/14 03:25:16;;;;;;;12.80;3.67;;;;;;;;;;5135733;27;20051;-63
2023/03/14 03:27:43;;;;;;;7.30;2.08;;;;;;;;;;5137031;27;20084;-63
2023/03/14 03:30:09;;;;;;;11.10;2.80;;;;;;;;;;5137660;27;20049;-64
2023/03/14 03:32:36;;;;;;;9.73;2.72;;;;;;;;;;5133800;27;20050;-63
2023/03/14 03:35:03;;;;;;;15.93;3.35;;;;;;;;;;5137730;27;20038;-62
2023/03/14 03:37:30;;;;;;;11.27;3.22;;;;;;;;;;5136834;27;20201;-63
2023/03/14 03:39:56;;;;;;;6.38;2.60;;;;;;;;;;5134367;27;20049;-63
2023/03/14 03:42:22;;;;;;;11.60;2.83;;;;;;;;;;5136538;27;20389;-63
2023/03/14 03:44:49;;;;;;;12.85;3.00;;;;;;;;;;5136117;27;20077;-63
2023/03/14 03:47:15;;;;;;;11.88;2.72;;;;;;;;;;5136480;27;20095;-63
2023/03/14 03:49:41;;;;;;;13.52;4.10;;;;;;;;;;5134797;27;20059;-63
2023/03/14 03:52:09;;;;;;;13.07;3.33;;;;;;;;;;5137203;27;20121;-63
2023/03/14 03:54:35;;;;;;;15.65;4.00;;;;;;;;;;5135191;27;20062;-62
2023/03/14 03:57:01;;;;;;;17.00;4.38;;;;;;;;;;5137657;27;20452;-62
2023/03/14 03:59:27;;;;;;;11.68;3.22;;;;;;;;;;5133650;27;20044;-63
2023/03/14 04:01:53;;;;;;;16.98;3.50;;;;;;;;;;5136314;27;20450;-64
2023/03/14 04:04:19;;;;;;;13.30;3.05;;;;;;;;;;5135128;27;20585;-63
2023/03/14 04:06:45;;;;;;;16.10;3.75;;;;;;;;;;5134504;27;20133;-63
2023/03/14 04:09:12;;;;;;;16.48;3.75;;;;;;;;;;5135591;27;20049;-63
2023/03/14 04:11:38;;;;;;;18.73;3.78;;;;;;;;;;5115525;27;20504;-63
2023/03/14 04:14:04;;;;;;;18.95;3.83;;;;;;;;;;5135108;27;20159;-63
2023/03/14 04:16:33;;;;;;;17.90;3.58;;;;;;;;;;5135770;27;20114;-63
2023/03/14 04:19:00;;;;;;;18.38;4.18;;;;;;;;;;5135520;27;20043;-63
2023/03/14 04:21:26;;;;;;;17.35;3.58;;;;;;;;;;5132981;27;20458;-63
2023/03/14 04:23:52;;;;;;;15.73;4.38;;;;;;;;;;5136034;27;20051;-63
2023/03/14 04:26:18;;;;;;;14.73;3.60;;;;;;;;;;5134189;27;20064;-63
2023/03/14 04:28:44;;;;;;;19.65;4.43;;;;;;;;;;5135196;27;20043;-63
2023/03/14 04:31:11;;;;;;;13.93;3.63;;;;;;;;;;5134278;27;20085;-64
2023/03/14 04:33:37;;;;;;;14.82;4.20;;;;;;;;;;5134789;27;20039;-63
2023/03/14 04:36:04;;;;;;;19.25;5.07;;;;;;;;;;5132807;27;20083;-62
2023/03/14 04:38:30;;;;;;;15.23;4.18;;;;;;;;;;5133857;27;20431;-62
2023/03/14 04:40:56;;;;;;;10.18;3.30;;;;;;;;;;5132078;27;20047;-63
2023/03/14 04:43:22;;;;;;;16.13;3.17;;;;;;;;;;5137910;27;20692;-62
2023/03/14 04:45:48;;;;;;;15.48;4.05;;;;;;;;;;5136044;27;20167;-62
2023/03/14 04:48:14;;;;;;;14.35;3.47;;;;;;;;;;5133744;27;20038;-62
2023/03/14 04:50:40;;;;;;;11.35;3.80;;;;;;;;;;5133602;27;20043;-63
2023/03/14 04:53:06;;;;;;;13.45;3.58;;;;;;;;;;5134373;27;20397;-63
2023/03/14 04:55:32;;;;;;;14.70;4.15;;;;;;;;;;5135372;27;20038;-62
2023/03/14 04:57:59;;;;;;;11.77;4.13;;;;;;;;;;5135720;27;20438;-63
2023/03/14 05:00:25;;;;;;;14.15;4.15;;;;;;;;;;5133147;27;20046;-62
2023/03/14 05:02:51;;;;;;;12.52;4.72;;;;;;;;;;5132580;27;20421;-62
2023/03/14 05:05:17;;;;;;;9.85;4.15;;;;;;;;;;5134533;27;20039;-63
2023/03/14 05:07:43;;;;;;;7.82;3.30;;;;;;;;;;5134675;27;20062;-63
2023/03/14 05:10:09;;;;;;;9.77;3.63;;;;;;;;;;5133338;27;20398;-63
2023/03/14 05:12:35;;;;;;;9.23;3.13;;;;;;;;;;5133593;27;20137;-64
2023/03/14 05:15:01;;;;;;;9.27;4.03;;;;;;;;;;5131871;27;20046;-63
2023/03/14 05:17:27;;;;;;;8.38;3.58;;;;;;;;;;5111206;27;20042;-63
2023/03/14 05:19:53;;;;;;;9.73;3.28;;;;;;;;;;5131674;27;20039;-63
2023/03/14 05:22:19;;;;;;;7.38;3.38;;;;;;;;;;5133628;27;20114;-63
2023/03/14 05:24:45;;;;;;;11.45;3.95;;;;;;;;;;5130207;27;20517;-63
2023/03/14 05:27:11;;;;;;;6.32;4.00;;;;;;;;;;5114947;27;20046;-63
2023/03/14 05:29:37;;;;;;;13.00;3.97;;;;;;;;;;5133676;27;20035;-63
2023/03/14 05:32:04;;;;;;;5.53;3.25;;;;;;;;;;5136286;27;20122;-63
2023/03/14 05:34:30;;;;;;;6.50;3.42;;;;;;;;;;5116751;27;20053;-64
2023/03/14 05:36:56;;;;;;;6.75;3.15;;;;;;;;;;5133692;27;20039;-63
2023/03/14 05:39:22;;;;;;;5.40;2.60;;;;;;;;;;5134750;27;20042;-63
2023/03/14 05:41:48;;;;;;;9.80;3.10;;;;;;;;;;5134872;27;20157;-63
2023/03/14 05:44:14;;;;;;;4.13;2.60;;;;;;;;;;5132569;27;20039;-63
2023/03/14 05:46:40;;;;;;;4.30;2.65;;;;;;;;;;5132592;27;20110;-63
2023/03/14 05:49:06;;;;;;;5.10;2.70;;;;;;;;;;5133654;27;20043;-63
2023/03/14 05:51:32;;;;;;;5.45;2.75;;;;;;;;;;5132399;27;20057;-63
2023/03/14 05:53:58;;;;;;;3.25;2.38;;;;;;;;;;5134026;27;20043;-64
2023/03/14 05:56:24;;;;;;;3.17;2.55;;;;;;;;;;5135161;27;20035;-63
2023/03/14 05:58:50;;;;;;;6.82;3.33;;;;;;;;;;5146782;27;20082;-63
2023/03/14 06:01:16;;;;;;;4.78;2.35;;;;;;;;;;5140810;27;20069;-64
2023/03/14 06:03:42;;;;;;;3.35;2.30;;;;;;;;;;5143248;27;20039;-63
2023/03/14 06:06:08;;;;;;;6.55;2.35;;;;;;;;;;5132683;27;20413;-63
2023/03/14 06:08:34;;;;;;;3.35;2.08;;;;;;;;;;5143217;27;20057;-63
2023/03/14 06:11:00;;;;;;;3.47;2.08;;;;;;;;;;5150672;27;20481;-63
2023/03/14 06:13:26;;;;;;;3.45;2.00;;;;;;;;;;5154952;27;20035;-63
2023/03/14 06:15:52;;;;;;;3.25;1.60;;;;;;;;;;5138986;27;20053;-63
2023/03/14 06:18:18;;;;;;;3.17;0.90;;;;;;;;;;5154291;27;20070;-63
2023/03/14 06:20:44;;;;;;;1.25;0.70;;;;;;;;;;5148227;27;20047;-64
2023/03/14 06:23:10;;;;;;;5.47;1.08;;;;;;;;;;5152676;27;20557;-63
2023/03/14 06:25:36;;;;;;;4.35;0.88;;;;;;;;;;5162551;27;20050;-63
2023/03/14 06:28:02;;;;;;;4.20;1.10;;;;;;;;;;5155409;27;20039;-64
2023/03/14 06:30:28;;;;;;;5.72;1.13;;;;;;;;;;5162293;27;20050;-61
2023/03/14 06:32:55;;;;;;;3.35;0.57;;;;;;;;;;5161311;27;20057;-60
2023/03/14 06:35:21;;;;;;;1.48;0.60;;;;;;;;;;5156857;27;20493;-57
2023/03/14 06:37:47;;;;;;;12.40;1.80;;;;;;;;;;5133616;27;20104;-59
2023/03/14 06:40:17;;;;;;;7.25;1.42;;;;;;;;;;5133593;27;20118;-60
2023/03/14 06:42:44;;;;;;;10.55;1.75;;;;;;;;;;5146519;27;20046;-64
2023/03/14 06:45:10;;;;;;;9.80;1.63;;;;;;;;;;5133528;27;20491;-64
2023/03/14 06:47:37;;;;;;;9.55;1.25;;;;;;;;;;5145001;27;20077;-64
2023/03/14 06:50:05;;;;;;;4.28;1.23;;;;;;;;;;5131265;27;20051;-64
2023/03/14 06:52:31;;;;;;;4.32;0.65;;;;;;;;;;5129961;27;20050;-64
2023/03/14 06:54:57;;;;;;;6.00;0.73;;;;;;;;;;5139762;27;20046;-65
2023/03/14 06:57:23;;;;;;;10.70;1.48;;;;;;;;;;5142077;27;20043;-65
2023/03/14 06:59:49;;;;;;;4.88;0.90;;;;;;;;;;5146046;27;20473;-65
2023/03/14 07:02:15;;;;;;;2.22;0.30;;;;;;;;;;5136567;27;20130;-65
2023/03/14 07:04:41;;;;;;;3.88;0.52;;;;;;;;;;5130447;27;20100;-64
2023/03/14 07:07:07;;;;;;;4.43;0.45;;;;;;;;;;5159466;27;20052;-64
2023/03/14 07:09:34;;;;;;;2.80;0.40;;;;;;;;;;5150980;27;20425;-64
2023/03/14 07:12:00;;;;;;;0.98;0.50;;;;;;;;;;5151288;27;20042;-65
2023/03/14 07:14:26;;;;;;;3.97;0.85;;;;;;;;;;5152240;27;20046;-64
2023/03/14 07:16:52;;;;;;;3.03;0.40;;;;;;;;;;5150551;27;20088;-65
2023/03/14 07:19:18;;;;;;;0.82;0.10;;;;;;;;;;5158613;27;20041;-64
2023/03/14 07:21:44;;;;;;;1.02;0.43;;;;;;;;;;5140954;27;20050;-64
2023/03/14 07:24:10;;;;;;;0.90;0.30;;;;;;;;;;5156784;27;20090;-66
2023/03/14 07:26:36;;;;;;;1.85;0.30;;;;;;;;;;5160803;27;20044;-65
2023/03/14 07:29:03;;;;;;;2.92;0.45;;;;;;;;;;5159870;27;20114;-64
2023/03/14 07:31:29;;;;;;;4.32;0.50;;;;;;;;;;5159802;27;20043;-65
2023/03/14 07:33:55;;;;;;;0.80;0.35;;;;;;;;;;5157219;27;20039;-64
2023/03/14 07:36:21;;;;;;;0.88;0.30;;;;;;;;;;5159086;27;20314;-65
2023/03/14 07:38:48;;;;;;;6.30;1.65;;;;;;;;;;5138273;27;20070;-64
2023/03/14 07:41:14;;;;;;;1.90;0.30;;;;;;;;;;5142038;27;20031;-64
2023/03/14 07:43:40;;;;;;;1.65;0.25;;;;;;;;;;5141634;27;20045;-65
2023/03/14 07:46:06;;;;;;;1.88;0.40;;;;;;;;;;5146195;27;20043;-64
2023/03/14 07:48:32;;;;;;;2.78;0.60;;;;;;;;;;5147615;27;20987;-64
2023/03/14 07:50:58;;;;;;;6.00;0.60;;;;;;;;;;5145721;27;20038;-64
2023/03/14 07:53:25;;;;;;;4.32;0.55;;;;;;;;;;5135201;27;20050;-65
2023/03/14 07:55:54;;;;;;;1.50;0.40;;;;;;;;;;5136786;27;20045;-64
2023/03/14 07:58:24;;;;;;;2.40;0.60;;;;;;;;;;5145823;27;20042;-64
2023/03/14 08:00:51;;;;;;;3.47;0.70;;;;;;;;;;5148493;27;20039;-64
2023/03/14 08:03:17;;;;;;;6.43;1.42;;;;;;;;;;5136663;27;20517;-64
2023/03/14 08:05:43;;;;;;;5.28;0.75;;;;;;;;;;5138145;27;20167;-64
2023/03/14 08:08:09;;;;;;;5.18;0.90;;;;;;;;;;5158335;27;20157;-64
2023/03/14 08:10:35;;;;;;;6.95;0.80;;;;;;;;;;5151149;27;20046;-64
2023/03/14 08:13:01;;;;;;;2.00;0.40;;;;;;;;;;5150783;27;20126;-64
2023/03/14 08:15:29;;;;;;;3.83;0.60;;;;;;;;;;5160064;27;20508;-64
2023/03/14 08:17:55;;;;;;;2.03;0.50;;;;;;;;;;5155038;27;20039;-64
2023/03/14 08:20:21;;;;;;;2.92;0.50;;;;;;;;;;5155909;27;20630;-64
2023/03/14 08:22:48;;;;;;;4.30;1.20;;;;;;;;;;5154922;27;20031;-64
2023/03/14 08:25:14;;;;;;;3.70;0.68;;;;;;;;;;5154987;27;20155;-64
2023/03/14 08:27:41;;;;;;;5.43;0.70;;;;;;;;;;5158715;27;20126;-65
2023/03/14 08:30:08;;;;;;;2.10;0.40;;;;;;;;;;5157509;27;20058;-63
2023/03/14 08:32:34;;;;;;;2.50;0.70;;;;;;;;;;5156074;27;20171;-64
2023/03/14 08:35:00;;;;;;;7.50;1.20;;;;;;;;;;5155419;27;20125;-64
2023/03/14 08:37:27;;;;;;;3.30;0.98;;;;;;;;;;5159843;27;20036;-64
2023/03/14 08:39:53;;;;;;;9.50;2.08;;;;;;;;;;5154466;27;20046;-64
2023/03/14 08:42:19;;;;;;;6.55;1.48;;;;;;;;;;5158614;27;20040;-64
2023/03/14 08:44:45;;;;;;;9.88;1.80;;;;;;;;;;5150501;27;20802;-64
2023/03/14 08:47:12;;;;;;;3.83;0.98;;;;;;;;;;5150134;27;20034;-64
2023/03/14 08:49:38;;;;;;;11.10;2.25;;;;;;;;;;5159537;27;20074;-64
2023/03/14 08:52:04;;;;;;;6.65;1.30;;;;;;;;;;5154123;27;20138;-63
2023/03/14 08:54:31;;;;;;;8.85;1.58;;;;;;;;;;5116605;27;20042;-64
2023/03/14 08:56:57;;;;;;;8.15;1.73;;;;;;;;;;5156288;27;20129;-64
2023/03/14 08:59:23;;;;;;;8.32;1.98;;;;;;;;;;5149281;27;20047;-61
2023/03/14 09:01:49;;;;;;;8.50;2.67;;;;;;;;;;5147376;27;20481;-63
2023/03/14 09:04:15;;;;;;;12.35;2.40;;;;;;;;;;5137910;27;20070;-64
2023/03/14 09:06:41;;;;;;;14.10;1.83;;;;;;;;;;5147869;27;20368;-64
2023/03/14 09:09:07;;;;;;;13.77;2.40;;;;;;;;;;5133104;27;20085;-64
2023/03/14 09:11:33;;;;;;;15.68;2.47;;;;;;;;;;5133327;27;20046;-64
2023/03/14 09:13:59;;;;;;;10.60;2.17;;;;;;;;;;5144700;27;20047;-63
2023/03/14 09:16:25;;;;;;;13.00;2.45;;;;;;;;;;5138419;27;20058;-64
2023/03/14 09:18:57;;;;;;;16.25;3.03;;;;;;;;;;5146522;27;20050;-63
2023/03/14 09:21:23;;;;;;;10.27;2.47;;;;;;;;;;5156506;27;20050;-64
2023/03/14 09:23:49;;;;;;;10.50;2.20;;;;;;;;;;5157975;27;20476;-64
2023/03/14 09:26:15;;;;;;;5.93;2.03;;;;;;;;;;5155113;27;20041;-64
2023/03/14 09:28:41;;;;;;;7.65;1.77;;;;;;;;;;5149269;27;20091;-64
2023/03/14 09:31:08;;;;;;;11.15;2.53;;;;;;;;;;5137351;27;20047;-64
2023/03/14 09:33:35;;;;;;;15.00;2.38;;;;;;;;;;5134464;27;20121;-64
2023/03/14 09:36:01;;;;;;;8.93;2.38;;;;;;;;;;5134351;27;20054;-64
2023/03/14 09:38:27;;;;;;;14.95;3.58;;;;;;;;;;5131371;27;20480;-64
2023/03/14 09:40:54;;;;;;;7.03;1.85;;;;;;;;;;5126919;27;20446;-64
2023/03/14 09:43:21;;;;;;;8.15;2.20;;;;;;;;;;5129812;27;20120;-65
2023/03/14 09:45:48;;;;;;;14.27;3.03;;;;;;;;;;5140512;27;20049;-64
2023/03/14 09:48:16;;;;;;;16.90;2.95;;;;;;;;;;5134407;27;20046;-64
2023/03/14 09:50:53;;;;;;;10.30;2.17;;;;;;;;;;5133696;27;20493;-64
2023/03/14 09:53:22;;;;;;;9.93;2.45;;;;;;;;;;5132824;27;20114;-64
2023/03/14 09:55:50;;;;;;;18.77;3.63;;;;;;;;;;5136810;27;20043;-65
2023/03/14 09:58:18;;;;;;;13.75;2.78;;;;;;;;;;5119327;27;20160;-64
2023/03/14 10:00:44;;;;;;;9.82;2.38;;;;;;;;;;5145186;27;20042;-65
2023/03/14 10:03:13;;;;;;;15.55;2.78;;;;;;;;;;5138309;27;20053;-64
2023/03/14 10:05:39;;;;;;;10.73;2.13;;;;;;;;;;5146042;27;20047;-64
2023/03/14 10:08:06;;;;;;;10.48;2.38;;;;;;;;;;5146280;27;20061;-64
2023/03/14 10:10:32;;;;;;;19.45;2.45;;;;;;;;;;5141144;27;20059;-64
2023/03/14 10:12:59;;;;;;;14.52;3.63;;;;;;;;;;5124991;27;20168;-64
2023/03/14 10:15:28;;;;;;;12.05;2.40;;;;;;;;;;5127000;27;20035;-64
2023/03/14 10:17:54;;;;;;;12.60;2.17;;;;;;;;;;5128934;27;20047;-64
2023/03/14 10:20:41;;;;;;;7.45;1.77;;;;;;;;;;5127173;27;20054;-65
2023/03/14 10:23:07;;;;;;;9.13;1.85;;;;;;;;;;5145999;27;20054;-64
2023/03/14 10:25:34;;;;;;;12.55;2.42;;;;;;;;;;5144965;27;20047;-64
2023/03/14 10:28:00;;;;;;;7.43;1.75;;;;;;;;;;5143487;27;20159;-64
2023/03/14 10:30:43;;;;;;;9.00;2.15;;;;;;;;;;5131212;27;20408;-64
2023/03/14 10:33:20;;;;;;;9.02;1.98;;;;;;;;;;5126010;27;20046;-64
2023/03/14 10:35:54;;;;;;;12.90;2.60;;;;;;;;;;5131906;27;20091;-65
2023/03/14 10:38:23;;;;;;;10.68;2.05;;;;;;;;;;5131130;27;20043;-64
2023/03/14 10:40:52;;;;;;;10.48;2.42;;;;;;;;;;5126029;27;20090;-64
2023/03/14 10:43:21;;;;;;;10.05;2.28;;;;;;;;;;5128089;27;20092;-65
2023/03/14 10:45:52;;;;;;;7.80;1.55;;;;;;;;;;5130498;27;20079;-65
2023/03/14 10:48:19;;;;;;;9.63;1.73;;;;;;;;;;5124995;27;20039;-64
2023/03/14 10:50:49;;;;;;;9.23;2.03;;;;;;;;;;5124759;28;20087;-64
2023/03/14 10:53:17;;;;;;;10.15;2.17;;;;;;;;;;5125597;28;20039;-64
2023/03/14 10:55:47;;;;;;;5.13;1.65;;;;;;;;;;5125108;28;20051;-64
2023/03/14 10:58:30;;;;;;;10.50;2.33;;;;;;;;;;5132197;27;20039;-64
2023/03/14 11:00:56;;;;;;;;;;;;;;;;;;5129793;27;20681;-64
2023/03/14 11:03:23;;;;;;;5.32;1.00;;;;;;;;;;5137755;27;20385;-64
2023/03/14 11:06:02;;;;;;;6.32;1.42;;;;;;;;;;5133386;27;20110;-65
2023/03/14 11:08:47;;;;;;;11.27;1.73;;;;;;;;;;5134806;27;20726;-65
2023/03/14 11:11:27;;;;;;;6.93;1.55;;;;;;;;;;5136781;27;20042;-64
2023/03/14 11:13:53;;;;;;;6.07;1.17;;;;;;;;;;5138798;27;20521;-64
2023/03/14 11:16:28;;;;;;;4.35;1.10;;;;;;;;;;5137377;27;20039;-64
2023/03/14 11:18:54;;;;;;;5.25;1.50;;;;;;;;;;5152443;27;20050;-64
2023/03/14 11:21:26;;;;;;;5.57;1.20;;;;;;;;;;5138294;27;20042;-64
2023/03/14 11:23:55;;;;;;;12.07;2.00;;;;;;;;;;5151847;27;20034;-64
2023/03/14 11:26:50;;;;;;;7.47;1.77;;;;;;;;;;5161450;27;20049;-64
2023/03/14 11:29:35;;;;;;;6.32;1.55;;;;;;;;;;5044391;27;20139;-64
2023/03/14 11:32:03;;;;;;;5.78;1.17;;;;;;;;;;5157118;27;20070;-64
2023/03/14 11:34:33;;;;;;;7.32;1.27;;;;;;;;;;5160674;27;20445;-64
2023/03/14 11:37:05;;;;;;;4.82;0.90;;;;;;;;;;5160322;27;20468;-65
2023/03/14 11:39:39;;;;;;;4.97;1.05;;;;;;;;;;5160602;27;20421;-64
2023/03/14 11:42:09;;;;;;;5.70;1.00;;;;;;;;;;5129702;27;20046;-65
2023/03/14 11:44:39;;;;;;;10.85;1.35;;;;;;;;;;5148708;27;20050;-65
2023/03/14 11:47:38;;;;;;;7.85;1.42;;;;;;;;;;5149344;27;20054;-64
2023/03/14 11:50:16;;;;;;;4.18;1.25;;;;;;;;;;5090887;27;20454;-64
2023/03/14 11:52:45;;;;;;;10.68;1.80;;;;;;;;;;5149426;27;20085;-64
2023/03/14 11:55:25;;;;;;;3.35;1.20;;;;;;;;;;5148870;27;20050;-65
2023/03/14 11:57:52;;;;;;;9.05;1.67;;;;;;;;;;5148298;27;20043;-64
2023/03/14 12:00:22;;;;;;;8.85;1.42;;;;;;;;;;5130784;27;20715;-64
2023/03/14 12:02:50;;;;;;;9.45;1.75;;;;;;;;;;5149541;27;20043;-65
2023/03/14 12:05:31;;;;;;;6.07;1.63;;;;;;;;;;5148824;27;20046;-65
2023/03/14 12:08:10;;;;;;;10.68;1.92;;;;;;;;;;5148728;27;20058;-64
2023/03/14 12:10:46;;;;;;;5.22;1.40;;;;;;;;;;5147836;27;20049;-64
2023/03/14 12:13:14;;;;;;;6.72;1.50;;;;;;;;;;5149857;27;20047;-64
2023/03/14 12:15:43;;;;;;;6.82;2.10;;;;;;;;;;5137172;27;20085;-64
2023/03/14 12:18:30;;;;;;;6.40;1.23;;;;;;;;;;5156758;27;20039;-64
2023/03/14 12:21:01;;;;;;;4.63;1.10;;;;;;;;;;5128886;27;20405;-64
2023/03/14 12:23:28;;;;;;;4.35;1.05;;;;;;;;;;5149366;27;20042;-64
2023/03/14 12:26:28;;;;;;;6.00;1.30;;;;;;;;;;5135226;27;20188;-64
2023/03/14 12:28:57;;;;;;;7.47;2.03;;;;;;;;;;5072798;27;20055;-66
2023/03/14 12:31:36;;;;;;;8.95;1.65;;;;;;;;;;5136722;27;20050;-66
2023/03/14 12:34:05;;;;;;;8.95;1.83;;;;;;;;;;5144372;27;20540;-65
2023/03/14 12:36:49;;;;;;;10.45;2.38;;;;;;;;;;5142793;27;20039;-66
2023/03/14 12:39:30;;;;;;;10.40;1.67;;;;;;;;;;5139312;27;20042;-65
2023/03/14 12:42:06;;;;;;;6.82;1.52;;;;;;;;;;5143599;27;20098;-64
2023/03/14 12:44:32;;;;;;;4.43;1.30;;;;;;;;;;5136708;27;20370;-65
2023/03/14 12:47:15;;;;;;;4.15;1.20;;;;;;;;;;5131314;27;20126;-65
2023/03/14 12:49:41;;;;;;;5.40;2.08;;;;;;;;;;5141522;27;20496;-65
2023/03/14 12:52:14;;;;;;;3.17;0.85;;;;;;;;;;5127443;27;20484;-65
2023/03/14 12:54:45;;;;;;;4.57;1.38;;;;;;;;;;5135644;27;20039;-64
2023/03/14 12:57:29;;;;;;;6.75;1.85;;;;;;;;;;5148036;27;21164;-65
2023/03/14 12:59:57;;;;;;;5.43;1.48;;;;;;;;;;5137260;27;20056;-65
2023/03/14 13:02:24;;;;;;;10.82;1.77;;;;;;;;;;5126881;27;20051;-64
2023/03/14 13:04:53;;;;;;;7.70;1.23;;;;;;;;;;5127494;27;20043;-64
2023/03/14 13:07:19;;;;;;;4.45;0.75;;;;;;;;;;5126648;27;20492;-64
2023/03/14 13:10:14;;;;;;;5.63;1.20;;;;;;;;;;5136005;27;20050;-60
2023/03/14 13:12:56;;;;;;;9.32;1.30;;;;;;;;;;5122516;27;20139;-63
2023/03/14 13:15:24;;;;;;;4.43;0.90;;;;;;;;;;5133124;27;20392;-64
2023/03/14 13:17:51;;;;;;;4.28;1.15;;;;;;;;;;5125194;27;20493;-64
2023/03/14 13:20:27;;;;;;;4.35;1.15;;;;;;;;;;5124798;27;20049;-64
2023/03/14 13:22:53;;;;;;;4.50;1.13;;;;;;;;;;5128912;27;20467;-63
2023/03/14 13:25:21;;;;;;;7.32;1.15;;;;;;;;;;5149505;27;20050;-65
2023/03/14 13:27:48;;;;;;;7.20;1.45;;;;;;;;;;5153480;27;20038;-64
2023/03/14 13:30:17;;;;;;;3.80;0.70;;;;;;;;;;5153827;27;20106;-63
2023/03/14 13:32:44;;;;;;;9.63;1.73;;;;;;;;;;5148533;27;20050;-63
2023/03/14 13:35:21;;;;;;;5.70;1.02;;;;;;;;;;5145002;27;20043;-63
2023/03/14 13:37:48;;;;;;;4.28;1.33;;;;;;;;;;5152112;27;20489;-63
2023/03/14 13:40:21;;;;;;;7.55;1.35;;;;;;;;;;5154933;27;20030;-63
2023/03/14 13:42:48;;;;;;;5.85;1.00;;;;;;;;;;5147796;27;20393;-63
2023/03/14 13:45:14;;;;;;;4.35;0.77;;;;;;;;;;5136493;27;20042;-63
2023/03/14 13:47:40;;;;;;;6.10;1.40;;;;;;;;;;5126434;27;20074;-64
2023/03/14 13:50:13;;;;;;;3.53;1.42;;;;;;;;;;5146483;27;20122;-64
2023/03/14 13:52:39;;;;;;;;;;;;;;;;;;5146756;27;20039;-64
2023/03/14 13:55:06;;;;;;;3.92;0.93;;;;;;;;;;5149657;27;19926;-63
2023/03/14 13:57:49;;;;;;;4.28;1.05;;;;;;;;;;5158004;27;20135;-63
2023/03/14 14:00:19;;;;;;;5.05;1.02;;;;;;;;;;5152786;27;20039;-63
2023/03/14 14:02:45;;;;;;;2.50;0.77;;;;;;;;;;5155395;27;20031;-63
2023/03/14 14:05:11;;;;;;;3.42;0.88;;;;;;;;;;5148854;27;20053;-64
2023/03/14 14:07:37;;;;;;;2.55;1.08;;;;;;;;;;5156855;27;20050;-63
2023/03/14 14:10:04;;;;;;;2.40;0.60;;;;;;;;;;5156922;27;20113;-65
2023/03/14 14:12:33;;;;;;;4.95;0.80;;;;;;;;;;5155734;27;20089;-63
2023/03/14 14:15:01;;;;;;;9.85;1.52;;;;;;;;;;5153337;27;20038;-63
2023/03/14 14:17:30;;;;;;;6.97;1.23;;;;;;;;;;5154875;27;20257;-65
2023/03/14 14:19:56;;;;;;;1.67;0.45;;;;;;;;;;5152799;27;20458;-64
2023/03/14 14:22:22;;;;;;;4.32;1.45;;;;;;;;;;5153606;27;20464;-64
2023/03/14 14:24:51;;;;;;;3.17;0.82;;;;;;;;;;5149155;27;20510;-62
2023/03/14 14:27:17;;;;;;;3.70;0.95;;;;;;;;;;5153625;27;20089;-63
2023/03/14 14:29:44;;;;;;;3.10;1.10;;;;;;;;;;5128251;27;20466;-63
2023/03/14 14:32:10;;;;;;;6.60;1.13;;;;;;;;;;5125710;27;20043;-63
2023/03/14 14:34:40;;;;;;;6.20;1.10;;;;;;;;;;5128641;27;20051;-63
2023/03/14 14:37:17;;;;;;;3.20;1.10;;;;;;;;;;5125862;28;20055;-63
2023/03/14 14:39:43;;;;;;;5.85;1.30;;;;;;;;;;5125040;28;20039;-63
2023/03/14 14:42:16;;;;;;;5.68;1.33;;;;;;;;;;5125928;28;20051;-63
2023/03/14 14:44:44;;;;;;;3.55;1.52;;;;;;;;;;5126768;27;20032;-63